createdAt,value
2019-03-22T00:00:26.971Z,8.70
2019-03-22T00:02:55.743Z,11.87
2019-03-22T00:05:24.594Z,16.73
2019-03-22T00:07:53.470Z,20.60
2019-03-22T00:10:22.205Z,23.23
2019-03-22T00:12:50.928Z,22.43
2019-03-22T00:15:19.907Z,25.73
2019-03-22T00:17:48.634Z,16.73
2019-03-22T00:20:17.356Z,13.00
2019-03-22T00:22:46.219Z,17.13
2019-03-22T00:25:14.959Z,13.03
2019-03-22T00:27:43.682Z,11.57
2019-03-22T00:30:13.054Z,13.53
2019-03-22T00:32:41.781Z,12.90
2019-03-22T00:35:10.800Z,13.37
2019-03-22T00:37:39.696Z,9.73
2019-03-22T00:40:09.823Z,8.77
2019-03-22T00:42:38.538Z,8.50
2019-03-22T00:45:09.417Z,9.03
2019-03-22T00:47:38.214Z,9.70
2019-03-22T00:50:08.235Z,9.33
2019-03-22T00:52:37.017Z,8.30
2019-03-22T00:55:06.348Z,8.50
2019-03-22T00:57:35.067Z,9.50
2019-03-22T01:00:05.418Z,10.47
2019-03-22T01:02:34.142Z,10.30
2019-03-22T01:05:02.866Z,10.53
2019-03-22T01:07:31.663Z,9.70
2019-03-22T01:10:00.396Z,10.00
2019-03-22T01:12:29.110Z,10.53
2019-03-22T01:14:58.066Z,10.50
2019-03-22T01:17:26.798Z,10.47
2019-03-22T01:19:55.520Z,9.73
2019-03-22T01:22:24.437Z,10.83
2019-03-22T01:24:53.154Z,10.17
2019-03-22T01:27:21.876Z,9.97
2019-03-22T01:29:50.729Z,10.03
2019-03-22T01:32:19.456Z,10.20
2019-03-22T01:34:48.183Z,11.03
2019-03-22T01:37:17.155Z,11.30
2019-03-22T01:39:45.885Z,12.23
2019-03-22T01:42:14.607Z,12.27
2019-03-22T01:44:43.609Z,11.73
2019-03-22T01:47:12.332Z,11.27
2019-03-22T01:49:41.065Z,11.00
2019-03-22T01:52:09.862Z,11.53
2019-03-22T01:54:38.585Z,11.67
2019-03-22T01:57:07.315Z,12.20
2019-03-22T01:59:36.158Z,12.37
2019-03-22T02:02:04.884Z,11.27
2019-03-22T02:04:33.605Z,9.83
2019-03-22T02:07:02.384Z,9.90
2019-03-22T02:09:31.111Z,11.07
2019-03-22T02:11:59.846Z,10.70
2019-03-22T02:14:28.741Z,11.37
2019-03-22T02:16:57.477Z,10.37
2019-03-22T02:19:26.205Z,10.97
2019-03-22T02:21:55.007Z,10.33
2019-03-22T02:24:23.728Z,11.80
2019-03-22T02:26:52.457Z,10.03
2019-03-22T02:29:21.330Z,9.83
2019-03-22T02:31:50.063Z,14.07
2019-03-22T02:34:18.786Z,9.83
2019-03-22T02:36:47.565Z,9.63
2019-03-22T02:39:16.302Z,14.53
2019-03-22T02:41:45.092Z,9.67
2019-03-22T02:44:13.945Z,9.90
2019-03-22T02:46:42.673Z,12.33
2019-03-22T02:49:11.402Z,10.53
2019-03-22T02:51:40.271Z,10.57
2019-03-22T02:54:09.002Z,10.47
2019-03-22T02:56:37.724Z,10.90
2019-03-22T02:59:06.572Z,12.83
2019-03-22T03:01:35.287Z,17.27
2019-03-22T03:04:04.219Z,27.90
2019-03-22T03:06:32.987Z,26.37
2019-03-22T03:09:01.710Z,20.90
2019-03-22T03:11:30.465Z,18.57
2019-03-22T03:13:59.221Z,14.17
2019-03-22T03:16:27.950Z,14.90
2019-03-22T03:18:56.682Z,14.10
2019-03-22T03:21:25.538Z,13.10
2019-03-22T03:23:54.259Z,11.77
2019-03-22T03:26:22.987Z,11.97
2019-03-22T03:28:51.837Z,11.20
2019-03-22T03:31:20.557Z,11.33
2019-03-22T03:33:49.313Z,11.03
2019-03-22T03:36:18.075Z,10.47
2019-03-22T03:38:46.837Z,10.43
2019-03-22T03:41:15.598Z,10.67
2019-03-22T03:43:44.494Z,10.00
2019-03-22T03:46:13.215Z,10.50
2019-03-22T03:48:41.932Z,10.93
2019-03-22T03:51:10.720Z,11.50
2019-03-22T03:53:39.449Z,11.43
2019-03-22T03:56:08.184Z,11.80
2019-03-22T03:58:51.220Z,12.87
2019-03-22T04:01:07.411Z,14.93
2019-03-22T04:03:36.136Z,15.63
2019-03-22T04:06:04.995Z,15.70
2019-03-22T04:08:33.734Z,15.03
2019-03-22T04:11:02.461Z,14.17
2019-03-22T04:13:31.334Z,15.23
2019-03-22T04:16:00.058Z,13.00
2019-03-22T04:18:28.782Z,13.20
2019-03-22T04:20:57.583Z,13.30
2019-03-22T04:23:26.318Z,14.73
2019-03-22T04:25:55.034Z,15.57
2019-03-22T04:28:23.950Z,14.13
2019-03-22T04:30:52.687Z,15.03
2019-03-22T04:33:21.415Z,15.93
2019-03-22T04:35:52.121Z,17.13
2019-03-22T04:38:21.987Z,16.37
2019-03-22T04:40:50.727Z,16.10
2019-03-22T04:43:19.744Z,17.47
2019-03-22T04:45:49.673Z,21.60
2019-03-22T04:48:21.309Z,18.60
2019-03-22T04:50:51.871Z,18.93
2019-03-22T04:53:23.506Z,19.00
2019-03-22T04:55:55.146Z,19.77
2019-03-22T04:58:25.023Z,16.83
2019-03-22T05:00:56.267Z,18.60
2019-03-22T05:03:27.201Z,18.40
2019-03-22T05:05:58.999Z,31.57
2019-03-22T05:08:30.635Z,31.77
2019-03-22T05:11:02.367Z,31.67
2019-03-22T05:13:33.259Z,30.13
2019-03-22T05:16:03.168Z,26.60
2019-03-22T05:18:33.495Z,39.63
2019-03-22T05:21:03.584Z,31.90
2019-03-22T05:23:33.807Z,37.57
2019-03-22T05:26:04.638Z,15.93
2019-03-22T05:28:34.117Z,23.67
2019-03-22T05:31:17.676Z,26.27
2019-03-22T05:33:46.546Z,37.23
2019-03-22T05:36:15.281Z,18.70
2019-03-22T05:38:44.013Z,18.63
2019-03-22T05:41:13.866Z,19.70
2019-03-22T05:43:42.680Z,18.10
2019-03-22T05:46:11.398Z,19.23
2019-03-22T05:48:40.256Z,20.60
2019-03-22T05:51:08.983Z,21.50
2019-03-22T05:53:37.713Z,20.63
2019-03-22T05:56:06.612Z,20.33
2019-03-22T05:58:35.352Z,23.37
2019-03-22T06:01:04.085Z,22.50
2019-03-22T06:03:32.935Z,22.40
2019-03-22T06:06:02.019Z,22.13
2019-03-22T06:08:30.754Z,19.70
2019-03-22T06:10:59.519Z,18.13
2019-03-22T06:13:28.245Z,19.20
2019-03-22T06:15:56.978Z,18.13
2019-03-22T06:18:25.848Z,16.73
2019-03-22T06:20:54.570Z,18.17
2019-03-22T06:23:23.294Z,19.37
2019-03-22T06:25:52.059Z,18.57
2019-03-22T06:28:20.786Z,16.43
2019-03-22T06:30:49.713Z,16.97
2019-03-22T06:33:18.602Z,16.47
2019-03-22T06:35:47.390Z,18.57
2019-03-22T06:38:16.143Z,15.00
2019-03-22T06:40:44.988Z,15.43
2019-03-22T06:43:13.727Z,15.23
2019-03-22T06:45:42.449Z,15.53
2019-03-22T06:48:11.225Z,16.93
2019-03-22T06:50:39.949Z,15.20
2019-03-22T06:53:08.779Z,13.50
2019-03-22T06:55:37.555Z,15.17
2019-03-22T06:58:06.281Z,14.60
2019-03-22T07:00:35.018Z,12.53
2019-03-22T07:03:03.795Z,11.73
2019-03-22T07:05:32.519Z,9.83
2019-03-22T07:08:01.250Z,11.57
2019-03-22T07:10:30.270Z,10.47
2019-03-22T07:12:59.007Z,10.27
2019-03-22T07:15:27.736Z,10.07
2019-03-22T07:17:56.507Z,11.27
2019-03-22T07:20:25.249Z,10.83
2019-03-22T07:22:53.977Z,10.63
2019-03-22T07:25:22.991Z,9.90
2019-03-22T07:27:51.716Z,9.83
2019-03-22T07:30:20.645Z,10.33
2019-03-22T07:32:49.493Z,8.93
2019-03-22T07:35:18.217Z,9.07
2019-03-22T07:37:46.941Z,9.20
2019-03-22T07:40:15.723Z,8.97
2019-03-22T07:42:44.444Z,8.13
2019-03-22T07:45:13.264Z,8.73
2019-03-22T07:47:42.124Z,10.13
2019-03-22T07:50:12.939Z,9.10
2019-03-22T07:52:41.666Z,9.07
2019-03-22T07:55:10.708Z,8.83
2019-03-22T07:57:39.423Z,9.00
2019-03-22T08:00:13.385Z,9.53
2019-03-22T08:02:42.237Z,8.30
2019-03-22T08:05:11.064Z,7.73
2019-03-22T08:07:39.794Z,8.50
2019-03-22T08:10:09.703Z,8.80
2019-03-22T08:12:38.408Z,8.33
2019-03-22T08:15:08.805Z,12.97
2019-03-22T08:17:37.778Z,8.40
2019-03-22T08:20:07.382Z,9.13
2019-03-22T08:22:36.158Z,9.70
2019-03-22T08:25:05.321Z,10.60
2019-03-22T08:27:34.049Z,11.33
2019-03-22T08:30:02.790Z,12.10
2019-03-22T08:32:31.576Z,10.37
2019-03-22T08:35:00.338Z,12.07
2019-03-22T08:37:29.118Z,11.57
2019-03-22T08:39:57.993Z,10.50
2019-03-22T08:42:26.727Z,10.90
2019-03-22T08:44:55.463Z,11.40
2019-03-22T08:47:34.023Z,10.93
2019-03-22T08:49:54.667Z,12.20
2019-03-22T08:52:23.438Z,12.37
2019-03-22T08:54:52.199Z,13.40
2019-03-22T08:57:20.932Z,11.67
2019-03-22T08:59:49.645Z,12.60
2019-03-22T09:02:18.437Z,12.13
2019-03-22T09:04:47.125Z,11.53
2019-03-22T09:07:15.856Z,11.50
2019-03-22T09:09:44.758Z,12.00
2019-03-22T09:12:13.494Z,11.40
2019-03-22T09:14:42.311Z,12.60
2019-03-22T09:17:11.116Z,12.17
2019-03-22T09:19:39.918Z,12.40
2019-03-22T09:22:08.701Z,13.07
2019-03-22T09:24:39.368Z,13.07
2019-03-22T09:27:08.077Z,11.40
2019-03-22T09:29:36.795Z,14.87
2019-03-22T09:32:05.625Z,12.50
2019-03-22T09:34:34.426Z,12.10
2019-03-22T09:37:03.157Z,13.30
2019-03-22T09:39:31.900Z,12.00
2019-03-22T09:42:00.622Z,12.27
2019-03-22T09:44:42.407Z,12.93
2019-03-22T09:46:59.902Z,13.43
2019-03-22T09:49:28.605Z,12.87
2019-03-22T09:51:57.363Z,12.87
2019-03-22T09:54:26.346Z,11.90
2019-03-22T09:56:55.122Z,12.70
2019-03-22T09:59:23.827Z,16.63
2019-03-22T10:01:52.701Z,11.87
2019-03-22T10:04:21.433Z,12.63
2019-03-22T10:06:50.131Z,14.47
2019-03-22T10:09:19.118Z,12.57
2019-03-22T10:11:47.867Z,10.37
2019-03-22T10:14:16.579Z,10.43
2019-03-22T10:16:47.615Z,12.03
2019-03-22T10:19:15.964Z,10.47
2019-03-22T10:21:44.847Z,11.33
2019-03-22T10:24:13.652Z,11.10
2019-03-22T10:26:42.445Z,10.67
2019-03-22T10:29:11.176Z,10.73
2019-03-22T10:31:39.981Z,10.60
2019-03-22T10:34:08.787Z,11.17
2019-03-22T10:36:37.543Z,10.13
2019-03-22T10:39:08.828Z,10.23
2019-03-22T10:41:37.544Z,10.37
2019-03-22T10:44:06.370Z,8.93
2019-03-22T10:46:35.331Z,10.07
2019-03-22T10:49:04.212Z,12.40
2019-03-22T10:51:32.967Z,9.43
2019-03-22T10:54:01.856Z,10.97
2019-03-22T10:56:30.616Z,10.67
2019-03-22T10:58:59.346Z,10.73
2019-03-22T11:01:28.227Z,9.60
2019-03-22T11:03:57.060Z,9.37
2019-03-22T11:06:26.723Z,9.87
2019-03-22T11:08:55.907Z,9.00
2019-03-22T11:11:24.634Z,8.70
2019-03-22T11:13:53.448Z,8.40
2019-03-22T11:16:22.212Z,9.20
2019-03-22T11:18:50.942Z,9.13
2019-03-22T11:21:19.669Z,8.10
2019-03-22T11:23:48.523Z,9.20
2019-03-22T11:26:17.251Z,9.07
2019-03-22T11:28:45.973Z,8.87
2019-03-22T11:31:14.832Z,8.93
2019-03-22T11:33:43.561Z,8.87
2019-03-22T11:36:12.289Z,9.03
2019-03-22T11:38:41.058Z,8.07
2019-03-22T11:41:09.769Z,8.70
2019-03-22T11:43:38.487Z,8.83
2019-03-22T11:46:07.487Z,7.93
2019-03-22T11:48:36.209Z,9.30
2019-03-22T11:51:05.531Z,7.80
2019-03-22T11:53:34.573Z,8.77
2019-03-22T11:56:03.302Z,8.60
2019-03-22T11:58:32.019Z,9.50
2019-03-22T12:01:00.883Z,8.77
2019-03-22T12:03:29.618Z,8.33
2019-03-22T12:05:58.338Z,8.57
2019-03-22T12:08:27.224Z,7.80
2019-03-22T12:10:55.942Z,8.40
2019-03-22T12:13:24.783Z,8.03
2019-03-22T12:15:53.557Z,8.60
2019-03-22T12:18:22.275Z,8.13
2019-03-22T12:20:51.001Z,8.47
2019-03-22T12:23:19.856Z,8.00
2019-03-22T12:25:48.580Z,8.83
2019-03-22T12:28:17.303Z,11.60
2019-03-22T12:30:46.111Z,9.27
2019-03-22T12:33:14.830Z,8.23
2019-03-22T12:35:43.566Z,9.73
2019-03-22T12:38:12.419Z,7.97
2019-03-22T12:40:41.145Z,9.43
2019-03-22T12:43:09.882Z,8.57
2019-03-22T12:45:38.655Z,8.33
2019-03-22T12:48:07.359Z,8.87
2019-03-22T12:50:36.095Z,8.73
2019-03-22T12:53:05.167Z,8.43
2019-03-22T12:55:33.895Z,8.90
2019-03-22T12:58:02.614Z,7.80
2019-03-22T13:00:31.458Z,8.80
2019-03-22T13:03:00.184Z,9.13
2019-03-22T13:05:28.917Z,9.40
2019-03-22T13:07:57.720Z,8.47
2019-03-22T13:10:27.547Z,9.20
2019-03-22T13:12:56.564Z,8.50
2019-03-22T13:15:25.326Z,8.23
2019-03-22T13:17:54.056Z,9.30
2019-03-22T13:20:22.782Z,8.33
2019-03-22T13:22:51.663Z,8.60
2019-03-22T13:25:21.310Z,8.83
2019-03-22T13:27:50.202Z,8.23
2019-03-22T13:30:30.998Z,8.27
2019-03-22T13:32:59.946Z,11.53
2019-03-22T13:35:28.670Z,7.83
2019-03-22T13:37:57.545Z,8.33
2019-03-22T13:40:26.273Z,7.93
2019-03-22T13:42:54.999Z,9.70
2019-03-22T13:45:23.910Z,9.47
2019-03-22T13:47:52.628Z,9.10
2019-03-22T13:50:21.452Z,8.97
2019-03-22T13:52:50.259Z,8.50
2019-03-22T13:55:19.057Z,9.03
2019-03-22T13:57:47.781Z,8.53
2019-03-22T14:00:17.933Z,8.33
2019-03-22T14:02:46.656Z,8.20
2019-03-22T14:05:15.463Z,16.63
2019-03-22T14:07:44.407Z,8.53
2019-03-22T14:10:33.017Z,13.40
2019-03-22T14:13:03.235Z,10.40
2019-03-22T14:15:31.957Z,8.93
2019-03-22T14:18:00.994Z,9.00
2019-03-22T14:20:30.548Z,11.37
2019-03-22T14:22:59.286Z,8.70
2019-03-22T14:25:28.012Z,15.23
2019-03-22T14:27:56.897Z,9.93
2019-03-22T14:30:25.626Z,10.53
2019-03-22T14:32:58.115Z,8.50
2019-03-22T14:35:28.490Z,8.17
2019-03-22T14:37:57.474Z,7.97
2019-03-22T14:40:26.201Z,8.20
2019-03-22T14:42:54.984Z,9.43
2019-03-22T14:45:23.715Z,10.47
2019-03-22T14:47:52.439Z,11.10
2019-03-22T14:50:21.225Z,9.90
2019-03-22T14:52:49.957Z,8.97
2019-03-22T14:55:18.683Z,9.13
2019-03-22T14:57:49.943Z,8.57
2019-03-22T15:00:17.995Z,8.47
2019-03-22T15:02:46.712Z,8.50
2019-03-22T15:05:15.473Z,8.83
2019-03-22T15:07:44.195Z,8.90
2019-03-22T15:10:13.622Z,8.40
2019-03-22T15:12:42.393Z,8.10
2019-03-22T15:15:21.844Z,8.37
2019-03-22T15:18:04.534Z,12.60
2019-03-22T15:20:44.120Z,8.33
2019-03-22T15:23:26.816Z,9.20
2019-03-22T15:26:13.557Z,8.00
2019-03-22T15:28:43.951Z,13.07
2019-03-22T15:31:31.015Z,8.07
2019-03-22T15:34:04.866Z,9.03
2019-03-22T15:36:44.266Z,8.70
2019-03-22T15:39:17.715Z,10.23
2019-03-22T15:41:46.603Z,8.93
2019-03-22T15:44:15.409Z,10.00
2019-03-22T15:46:44.308Z,9.93
2019-03-22T15:49:13.035Z,9.93
2019-03-22T15:51:41.767Z,8.50
2019-03-22T15:54:10.656Z,9.30
2019-03-22T15:56:39.383Z,9.67
2019-03-22T15:59:08.119Z,9.40
2019-03-22T16:01:36.990Z,9.40
2019-03-22T16:04:05.729Z,9.63
2019-03-22T16:06:34.456Z,9.17
2019-03-22T16:09:04.936Z,11.50
2019-03-22T16:11:33.672Z,10.80
2019-03-22T16:14:02.400Z,9.10
2019-03-22T16:16:31.576Z,9.90
2019-03-22T16:19:00.304Z,9.00
2019-03-22T16:21:29.032Z,8.90
2019-03-22T16:23:58.493Z,9.80
2019-03-22T16:26:27.210Z,8.97
2019-03-22T16:28:55.939Z,9.00
2019-03-22T16:31:25.166Z,9.50
2019-03-22T16:33:54.700Z,10.33
2019-03-22T16:36:23.877Z,10.43
2019-03-22T16:38:52.824Z,10.70
2019-03-22T16:41:21.646Z,10.83
2019-03-22T16:43:50.460Z,11.30
2019-03-22T16:46:19.464Z,12.37
2019-03-22T16:48:48.299Z,11.17
2019-03-22T16:51:17.105Z,11.37
2019-03-22T16:53:46.167Z,11.17
2019-03-22T16:56:14.985Z,11.20
2019-03-22T16:58:44.907Z,10.93
2019-03-22T17:01:13.799Z,10.57
2019-03-22T17:03:42.606Z,11.10
2019-03-22T17:06:11.414Z,10.70
2019-03-22T17:08:43.031Z,10.90
2019-03-22T17:11:11.854Z,11.00
2019-03-22T17:13:41.761Z,11.30
2019-03-22T17:16:10.590Z,10.77
2019-03-22T17:18:39.413Z,11.83
2019-03-22T17:21:08.381Z,11.20
2019-03-22T17:23:37.194Z,11.87
2019-03-22T17:26:06.012Z,10.13
2019-03-22T17:28:35.230Z,12.43
2019-03-22T17:31:04.055Z,13.40
2019-03-22T17:33:32.871Z,11.73
2019-03-22T17:36:01.775Z,11.17
2019-03-22T17:38:30.591Z,12.20
2019-03-22T17:40:59.448Z,12.40
2019-03-22T17:43:28.441Z,12.80
2019-03-22T17:45:57.249Z,12.10
2019-03-22T17:48:26.062Z,12.07
2019-03-22T17:50:54.950Z,12.27
2019-03-22T17:53:23.779Z,11.60
2019-03-22T17:55:52.605Z,12.23
2019-03-22T17:58:21.731Z,11.10
2019-03-22T18:00:50.735Z,13.53
2019-03-22T18:03:19.553Z,12.57
2019-03-22T18:05:48.491Z,11.57
2019-03-22T18:08:17.313Z,13.37
2019-03-22T18:10:46.138Z,13.67
2019-03-22T18:13:15.115Z,15.27
2019-03-22T18:15:43.917Z,16.83
2019-03-22T18:18:12.726Z,15.43
2019-03-22T18:20:41.578Z,15.03
2019-03-22T18:23:10.390Z,15.03
2019-03-22T18:25:39.198Z,15.50
2019-03-22T18:28:08.168Z,14.30
2019-03-22T18:30:36.988Z,13.00
2019-03-22T18:33:05.801Z,13.60
2019-03-22T18:35:34.824Z,12.80
2019-03-22T18:38:03.631Z,13.50
2019-03-22T18:40:32.447Z,14.20
2019-03-22T18:43:01.808Z,12.80
2019-03-22T18:45:30.625Z,13.37
2019-03-22T18:47:59.434Z,14.97
2019-03-22T18:50:28.381Z,18.80
2019-03-22T18:52:57.206Z,20.37
2019-03-22T18:55:26.005Z,19.07
2019-03-22T18:57:55.071Z,19.67
2019-03-22T19:00:23.984Z,20.43
2019-03-22T19:02:52.819Z,21.10
2019-03-22T19:05:21.739Z,21.30
2019-03-22T19:07:50.561Z,21.10
2019-03-22T19:10:19.384Z,23.97
2019-03-22T19:12:48.605Z,22.67
2019-03-22T19:15:17.503Z,22.33
2019-03-22T19:17:46.322Z,21.60
2019-03-22T19:20:16.919Z,20.10
2019-03-22T19:22:45.734Z,19.00
2019-03-22T19:25:14.668Z,18.47
2019-03-22T19:27:43.598Z,16.53
2019-03-22T19:30:16.954Z,15.97
2019-03-22T19:32:51.526Z,16.93
2019-03-22T19:35:24.808Z,18.57
2019-03-22T19:37:58.706Z,18.07
2019-03-22T19:40:28.995Z,17.90
2019-03-22T19:42:57.804Z,18.10
2019-03-22T19:45:27.017Z,18.63
2019-03-22T19:47:55.835Z,17.57
2019-03-22T19:50:24.643Z,18.17
2019-03-22T19:52:53.525Z,16.67
2019-03-22T19:55:22.340Z,18.17
2019-03-22T19:57:51.147Z,18.97
2019-03-22T20:00:20.971Z,19.33
2019-03-22T20:02:49.798Z,19.00
2019-03-22T20:05:24.694Z,19.10
2019-03-22T20:07:53.488Z,18.00
2019-03-22T20:10:22.298Z,17.73
2019-03-22T20:12:51.271Z,17.00
2019-03-22T20:15:20.077Z,16.40
2019-03-22T20:17:48.875Z,15.33
2019-03-22T20:20:17.927Z,14.40
2019-03-22T20:22:46.740Z,15.30
2019-03-22T20:25:15.540Z,14.57
2019-03-22T20:27:44.413Z,15.90
2019-03-22T20:30:17.469Z,18.40
2019-03-22T20:32:46.272Z,23.10
2019-03-22T20:35:16.962Z,23.20
2019-03-22T20:37:45.890Z,28.80
2019-03-22T20:40:19.180Z,28.07
2019-03-22T20:42:48.359Z,26.77
2019-03-22T20:45:24.228Z,22.80
2019-03-22T20:47:48.143Z,20.63
2019-03-22T20:50:17.178Z,17.87
2019-03-22T20:52:45.993Z,14.80
2019-03-22T20:55:14.896Z,17.27
2019-03-22T20:57:44.690Z,16.70
2019-03-22T21:00:14.895Z,19.67
2019-03-22T21:02:43.709Z,20.67
2019-03-22T21:05:13.065Z,21.77
2019-03-22T21:07:41.893Z,22.37
2019-03-22T21:10:12.233Z,27.47
2019-03-22T21:12:41.566Z,29.23
2019-03-22T21:15:11.895Z,25.60
2019-03-22T21:17:40.625Z,23.77
2019-03-22T21:20:11.416Z,28.53
2019-03-22T21:22:40.144Z,42.97
2019-03-22T21:25:10.483Z,35.73
2019-03-22T21:27:39.677Z,29.23
2019-03-22T21:30:10.665Z,31.07
2019-03-22T21:32:45.523Z,28.63
2019-03-22T21:35:22.561Z,19.47
2019-03-22T21:37:44.552Z,17.47
2019-03-22T21:40:13.273Z,18.10
2019-03-22T21:42:42.148Z,17.37
2019-03-22T21:45:11.574Z,16.27
2019-03-22T21:47:40.406Z,15.23
2019-03-22T21:50:10.403Z,15.80
2019-03-22T21:52:39.144Z,17.07
2019-03-22T21:55:09.547Z,17.27
2019-03-22T21:57:38.783Z,16.83
2019-03-22T22:00:13.000Z,18.10
2019-03-22T22:02:41.729Z,19.63
2019-03-22T22:05:10.877Z,20.60
2019-03-22T22:07:39.609Z,19.97
2019-03-22T22:10:09.333Z,20.17
2019-03-22T22:12:38.391Z,20.07
2019-03-22T22:15:11.787Z,18.40
2019-03-22T22:17:41.479Z,20.57
2019-03-22T22:20:11.180Z,21.00
2019-03-22T22:22:40.593Z,19.33
2019-03-22T22:25:09.518Z,19.63
2019-03-22T22:27:38.333Z,18.83
2019-03-22T22:30:09.056Z,15.53
2019-03-22T22:32:37.779Z,14.63
2019-03-22T22:35:09.927Z,15.30
2019-03-22T22:37:38.662Z,14.57
2019-03-22T22:40:12.266Z,14.60
2019-03-22T22:42:41.507Z,14.27
2019-03-22T22:45:13.149Z,15.00
2019-03-22T22:47:41.974Z,14.07
2019-03-22T22:50:12.093Z,13.23
2019-03-22T22:52:44.465Z,13.70
2019-03-22T22:55:13.292Z,22.43
2019-03-22T22:57:42.147Z,25.00
2019-03-22T23:00:18.650Z,38.37
2019-03-22T23:02:47.759Z,51.20
2019-03-22T23:05:16.489Z,49.00
2019-03-22T23:07:45.227Z,58.60
2019-03-22T23:10:14.179Z,95.10
2019-03-22T23:12:43.783Z,93.63
2019-03-22T23:15:12.505Z,93.93
2019-03-22T23:17:41.471Z,87.50
2019-03-22T23:20:11.099Z,30.83
2019-03-22T23:22:39.819Z,29.67
2019-03-22T23:25:08.877Z,30.80
2019-03-22T23:27:38.009Z,30.83
2019-03-22T23:30:11.933Z,32.63
2019-03-22T23:32:41.727Z,37.37
2019-03-22T23:35:11.369Z,40.87
2019-03-22T23:37:40.092Z,36.27
2019-03-22T23:40:09.291Z,35.50
2019-03-22T23:42:38.013Z,33.97
2019-03-22T23:45:08.954Z,28.27
2019-03-22T23:47:37.800Z,24.13
2019-03-22T23:50:14.648Z,20.27
2019-03-22T23:52:43.500Z,17.57
2019-03-22T23:55:12.774Z,18.30
2019-03-22T23:57:41.494Z,19.47
